Terminal Aerodrome Forecast
Issued by NWS Omaha/Valley, NE

Home | Current Version | Previous Version | Text Only | Print | Product List | Glossary On
Versions: 1 2 3 4 5 6 7 8 9 10 11 12 13 14 15 16 17 18 19 20 21 22 23 24 25 26 27 28 29 30 31
000
FTUS43 KOAX 241312 AAA
TAFOFK
TAF AMD
KOFK 241312Z 2413/2512 10006KT 1SM -SN OVC003
      TEMPO 2414/2416 3SM -SN SCT006 BKN025
     FM241600 04006KT 1SM -SN OVC008
     FM242000 30009KT 4SM BR OVC011
     FM250200 28009KT 6SM BR SCT007 BKN040=

USA.gov is the U.S. government's official web portal to all federal, state and local government web resources and services.